LF7324 weather

Altiport du Glacier De La Grande Motte
Tignes, Rhône Alpes, France

Public forecast

Using degrees Celsius for public forecast. Weather courtesy of forecast.io.

METAR (pilot weather report)

Closest report is Aosta Airport, 27.4 nm (50.8 km) NE. Retrieved 2019/09/21 17:50 UTC (56 minutes ago):

LIMW 211750Z AUTO 09009KT 9999 OVC058 17/09 Q1022

TAF (pilot weather forecast)

Closest forecast is Turin Airport, 34.6 nm (64.1 km) ESE. Retrieved 2019/09/21 18:00 UTC (46 minutes ago):

TAF LIMF 211700Z 2118/2218 VRB05KT 9999 SCT050 TEMPO 2200/2215 RA BKN012 BKN040